createdAt,value
2018-09-21T01:21:45.784Z,15.00
2018-09-21T01:26:25.723Z,15.10
2018-09-21T01:31:05.700Z,15.10
2018-09-21T01:40:47.895Z,15.00
2018-09-21T01:45:28.668Z,15.00
2018-09-21T01:50:08.729Z,14.90
2018-09-21T01:54:48.458Z,14.90
2018-09-21T01:59:28.304Z,14.80
2018-09-21T02:04:08.188Z,14.80
2018-09-21T02:08:48.840Z,14.80
2018-09-21T02:13:29.529Z,14.80
2018-09-21T02:18:10.126Z,14.80
2018-09-21T02:22:50.543Z,14.80
2018-09-21T02:27:31.164Z,14.90
2018-09-21T02:32:10.950Z,14.90
2018-09-21T02:36:50.812Z,14.90
2018-09-21T02:41:31.152Z,15.00
2018-09-21T02:46:11.050Z,14.90
2018-09-21T02:50:51.064Z,14.90
2018-09-21T02:55:31.265Z,14.90
2018-09-21T03:00:11.353Z,14.90
2018-09-21T03:04:53.573Z,14.90
2018-09-21T03:09:33.693Z,15.00
2018-09-21T03:14:14.436Z,14.90
2018-09-21T03:18:54.387Z,14.80
2018-09-21T03:23:34.249Z,14.70
2018-09-21T03:28:13.988Z,14.70
2018-09-21T03:32:54.392Z,14.80
2018-09-21T03:37:34.874Z,14.80
2018-09-21T03:42:14.581Z,14.80
2018-09-21T03:46:54.978Z,15.00
2018-09-21T03:51:35.165Z,15.10
2018-09-21T03:56:14.984Z,15.10
2018-09-21T04:00:55.305Z,15.10
2018-09-21T04:05:35.475Z,15.10
2018-09-21T04:10:15.952Z,15.20
2018-09-21T04:14:55.680Z,15.20
2018-09-21T04:19:36.864Z,15.20
2018-09-21T04:24:16.859Z,15.20
2018-09-21T04:28:56.857Z,15.10
2018-09-21T04:33:36.925Z,15.10
2018-09-21T04:38:16.970Z,15.00
2018-09-21T04:42:57.023Z,14.90
2018-09-21T04:47:37.044Z,14.90
2018-09-21T04:52:17.162Z,14.90
2018-09-21T04:56:57.656Z,14.90
2018-09-21T05:01:38.071Z,14.80
2018-09-21T05:06:17.975Z,14.80
2018-09-21T05:10:58.763Z,14.80
2018-09-21T05:15:38.649Z,14.70
2018-09-21T05:20:18.590Z,14.70
2018-09-21T05:24:58.513Z,14.70
2018-09-21T05:29:38.549Z,14.80
2018-09-21T05:34:18.474Z,14.70
2018-09-21T05:38:58.545Z,14.70
2018-09-21T05:43:38.414Z,14.70
2018-09-21T05:48:18.368Z,14.70
2018-09-21T05:52:58.549Z,14.80
2018-09-21T05:57:38.211Z,15.00
2018-09-21T06:02:18.894Z,15.20
2018-09-21T06:06:59.019Z,15.40
2018-09-21T06:11:40.056Z,15.50
2018-09-21T06:16:19.864Z,15.60
2018-09-21T06:21:00.113Z,15.70
2018-09-21T06:25:40.065Z,15.80
2018-09-21T06:30:20.121Z,15.80
2018-09-21T06:35:00.176Z,15.90
2018-09-21T06:39:40.834Z,16.10
2018-09-21T06:44:21.017Z,16.30
2018-09-21T06:49:01.429Z,16.60
2018-09-21T06:53:41.880Z,16.80
2018-09-21T06:58:22.471Z,17.40
2018-09-21T07:03:02.936Z,18.30
2018-09-21T07:07:43.225Z,19.30
2018-09-21T07:12:23.160Z,19.90
2018-09-21T07:17:03.501Z,20.10
2018-09-21T07:21:43.935Z,20.20
2018-09-21T07:26:23.836Z,20.20
2018-09-21T07:31:03.898Z,20.30
2018-09-21T07:35:44.872Z,20.40
2018-09-21T07:40:24.765Z,20.50
2018-09-21T07:45:05.412Z,20.80
2018-09-21T07:49:45.641Z,20.90
2018-09-21T07:54:25.742Z,21.20
2018-09-21T07:59:05.816Z,21.40
2018-09-21T08:03:46.368Z,21.90
2018-09-21T08:08:26.351Z,22.10
2018-09-21T08:13:06.106Z,22.00
2018-09-21T08:17:47.251Z,21.70
2018-09-21T08:22:27.614Z,21.50
2018-09-21T08:27:09.328Z,21.40
2018-09-21T08:31:49.967Z,21.40
2018-09-21T08:36:30.329Z,21.40
2018-09-21T08:41:09.977Z,21.50
2018-09-21T08:45:50.156Z,21.80
2018-09-21T08:50:30.043Z,22.00
2018-09-21T08:55:10.621Z,22.40
2018-09-21T08:59:50.236Z,22.40
2018-09-21T09:04:30.261Z,22.20
2018-09-21T09:09:10.804Z,22.10
2018-09-21T09:13:51.885Z,22.20
2018-09-21T09:18:32.160Z,22.30
2018-09-21T09:23:12.036Z,22.40
2018-09-21T09:27:51.820Z,22.30
2018-09-21T09:32:31.853Z,22.20
2018-09-21T09:37:12.832Z,22.30
2018-09-21T09:41:52.952Z,22.70
2018-09-21T09:46:33.784Z,23.10
2018-09-21T09:51:14.171Z,23.10
2018-09-21T09:55:54.584Z,23.00
2018-09-21T10:00:40.720Z,22.80
2018-09-21T10:05:20.624Z,22.70
2018-09-21T10:10:00.628Z,22.60
2018-09-21T10:14:40.577Z,22.50
2018-09-21T10:19:21.084Z,22.60
2018-09-21T10:24:01.275Z,22.40
2018-09-21T10:28:42.049Z,22.10
2018-09-21T10:33:21.562Z,21.70
2018-09-21T10:38:02.049Z,21.50
2018-09-21T10:42:42.343Z,21.40
2018-09-21T10:47:22.244Z,21.40
2018-09-21T10:52:02.351Z,21.30
2018-09-21T10:56:42.595Z,21.20
2018-09-21T11:01:22.971Z,21.10
2018-09-21T11:06:04.035Z,21.00
2018-09-21T11:10:44.363Z,20.80
2018-09-21T11:15:26.175Z,20.60
2018-09-21T11:20:06.323Z,20.30
2018-09-21T11:24:46.092Z,20.00
2018-09-21T11:29:27.146Z,19.90
2018-09-21T11:34:07.451Z,19.80
2018-09-21T11:38:52.308Z,19.70
2018-09-21T11:43:33.136Z,19.60
2018-09-21T11:48:13.989Z,19.40
2018-09-21T11:52:54.484Z,19.30
2018-09-21T11:57:34.577Z,19.40
2018-09-21T12:02:14.776Z,19.40
2018-09-21T12:06:56.045Z,19.10
2018-09-21T12:11:35.924Z,18.40
2018-09-21T12:16:15.828Z,17.50
2018-09-21T12:25:52.574Z,16.50
2018-09-21T12:30:32.694Z,16.30
2018-09-21T12:35:13.187Z,16.00
2018-09-21T12:39:53.631Z,15.70
2018-09-21T12:44:34.224Z,15.50
2018-09-21T12:49:14.633Z,15.30
2018-09-21T12:53:56.250Z,15.30
2018-09-21T12:58:36.724Z,15.30
2018-09-21T13:03:18.073Z,15.30
2018-09-21T13:07:58.707Z,15.10
2018-09-21T13:12:38.572Z,15.00
2018-09-21T13:17:19.367Z,15.00
2018-09-21T13:21:59.404Z,15.00
2018-09-21T13:26:39.077Z,15.00
2018-09-21T13:31:19.340Z,14.90
2018-09-21T13:35:59.780Z,15.00
2018-09-21T13:40:39.680Z,15.10
2018-09-21T13:45:20.932Z,15.20
2018-09-21T13:50:02.573Z,15.30
2018-09-21T13:54:44.080Z,15.40
2018-09-21T13:59:24.270Z,15.50
2018-09-21T14:04:04.638Z,15.60
2018-09-21T14:08:45.303Z,16.10
2018-09-21T14:13:25.400Z,16.60
2018-09-21T14:18:05.560Z,17.40
2018-09-21T14:22:45.527Z,17.60
2018-09-21T14:27:25.492Z,17.60
2018-09-21T14:32:06.108Z,17.30
2018-09-21T14:36:46.151Z,17.20
2018-09-21T14:41:25.988Z,17.40
2018-09-21T14:46:06.712Z,17.50
2018-09-21T14:50:47.960Z,17.50
2018-09-21T14:55:28.024Z,17.60
2018-09-21T15:00:07.972Z,17.80
2018-09-21T15:04:48.536Z,17.70
2018-09-21T15:09:28.672Z,17.70
2018-09-21T15:14:08.791Z,17.80
2018-09-21T15:18:48.786Z,17.70
2018-09-21T15:23:30.001Z,17.60
2018-09-21T15:28:11.012Z,17.70
2018-09-21T15:32:50.833Z,17.70
2018-09-21T15:37:31.008Z,17.50
2018-09-21T15:42:11.447Z,17.50
2018-09-21T15:46:52.008Z,17.40
2018-09-21T15:51:32.121Z,17.40
2018-09-21T15:56:12.572Z,17.40
2018-09-21T16:00:52.804Z,17.20
2018-09-21T16:05:32.860Z,17.00
2018-09-21T16:10:13.437Z,16.80
2018-09-21T16:14:53.712Z,16.70
2018-09-21T16:19:33.373Z,16.70
2018-09-21T16:24:14.073Z,16.70
2018-09-21T16:28:54.960Z,16.60
2018-09-21T16:33:34.948Z,16.50
2018-09-21T16:38:14.743Z,16.40
2018-09-21T16:42:54.636Z,16.30
2018-09-21T16:47:34.768Z,16.10
2018-09-21T16:52:14.550Z,16.10
2018-09-21T16:56:55.104Z,16.00
2018-09-21T17:01:35.391Z,15.90
2018-09-21T17:06:15.980Z,15.80
2018-09-21T17:10:56.136Z,15.70
2018-09-21T17:15:36.356Z,15.50
2018-09-21T17:20:16.985Z,15.30
2018-09-21T17:24:57.582Z,15.00
2018-09-21T17:29:38.175Z,14.70
2018-09-21T17:34:17.881Z,14.40
2018-09-21T17:38:58.752Z,14.00
2018-09-21T17:43:38.688Z,13.80
2018-09-21T17:48:18.641Z,13.60
2018-09-21T17:52:58.713Z,13.40
2018-09-21T17:57:38.771Z,13.30
2018-09-21T18:02:19.258Z,13.10
2018-09-21T18:06:59.224Z,13.00
2018-09-21T18:11:40.348Z,12.90
2018-09-21T18:16:20.501Z,12.80
2018-09-21T18:21:00.648Z,12.70
2018-09-21T18:25:40.542Z,12.60
2018-09-21T18:30:20.765Z,12.50
2018-09-21T18:35:00.414Z,12.50
2018-09-21T18:39:40.235Z,12.40
2018-09-21T18:44:20.297Z,12.40
2018-09-21T18:49:00.097Z,12.30
2018-09-21T18:53:40.698Z,12.30
2018-09-21T18:58:20.796Z,12.20
2018-09-21T19:03:00.628Z,12.10
2018-09-21T19:07:41.326Z,12.10
2018-09-21T19:12:21.108Z,11.90
2018-09-21T19:17:00.921Z,11.90
2018-09-21T19:21:41.588Z,11.80
2018-09-21T19:26:21.480Z,11.70
2018-09-21T19:31:01.352Z,11.60
2018-09-21T19:35:41.556Z,11.60
2018-09-21T19:40:21.368Z,11.60
2018-09-21T19:45:01.542Z,11.50
2018-09-21T19:49:42.263Z,11.40
2018-09-21T19:54:22.691Z,11.40
2018-09-21T19:59:02.570Z,11.30
2018-09-21T20:03:42.308Z,11.30
2018-09-21T20:08:22.340Z,11.20
2018-09-21T20:13:03.145Z,11.10
2018-09-21T20:17:43.120Z,11.00
2018-09-21T20:22:23.382Z,10.90
2018-09-21T20:27:03.301Z,10.90
2018-09-21T20:31:48.485Z,10.80
2018-09-21T20:36:28.700Z,10.70
2018-09-21T20:41:09.552Z,10.60
2018-09-21T20:45:50.544Z,10.50
2018-09-21T20:50:30.709Z,10.50
2018-09-21T20:55:11.466Z,10.40
2018-09-21T20:59:51.664Z,10.40
2018-09-21T21:04:32.487Z,10.40
2018-09-21T21:09:13.232Z,10.20
2018-09-21T21:13:53.115Z,10.20
2018-09-21T21:18:33.433Z,10.10
2018-09-21T21:23:13.319Z,10.10
2018-09-21T21:27:54.334Z,10.10
2018-09-21T21:32:35.578Z,10.10
2018-09-21T21:37:15.662Z,10.00
2018-09-21T21:41:55.939Z,9.90
2018-09-21T21:46:36.156Z,9.90
2018-09-21T21:51:16.092Z,9.90
2018-09-21T21:55:57.349Z,9.80
2018-09-21T22:00:43.216Z,9.70
2018-09-21T22:05:24.572Z,9.50
2018-09-21T22:10:06.764Z,9.50
2018-09-21T22:14:46.885Z,9.40
2018-09-21T22:19:27.839Z,9.40
2018-09-21T22:24:08.593Z,9.30
2018-09-21T22:28:48.520Z,9.20
2018-09-21T22:33:28.732Z,9.10
2018-09-21T22:38:08.651Z,9.00
2018-09-21T22:42:48.709Z,8.90
2018-09-21T22:47:28.933Z,8.90
2018-09-21T22:52:09.845Z,8.90
2018-09-21T22:56:49.581Z,8.90
2018-09-21T23:01:29.302Z,8.80
2018-09-21T23:06:09.427Z,8.80
2018-09-21T23:10:49.607Z,8.80
2018-09-21T23:15:33.018Z,8.80
2018-09-21T23:20:13.886Z,8.80
2018-09-21T23:24:53.549Z,8.80
2018-09-21T23:29:33.584Z,8.70
2018-09-21T23:34:18.314Z,8.70
2018-09-21T23:38:59.167Z,8.70
2018-09-21T23:43:39.025Z,8.80
2018-09-21T23:48:19.315Z,8.80
2018-09-21T23:52:59.247Z,8.80
2018-09-21T23:57:39.129Z,8.80
